createdAt,value
2018-12-06T00:02:45.090Z,4.86
2018-12-06T00:08:08.405Z,4.80
2018-12-06T00:13:16.993Z,4.63
2018-12-06T00:18:30.739Z,4.66
2018-12-06T00:23:40.001Z,4.72
2018-12-06T00:29:36.634Z,4.86
2018-12-06T00:34:49.978Z,4.91
2018-12-06T00:40:01.216Z,4.95
2018-12-06T00:45:23.461Z,4.91
2018-12-06T00:50:37.226Z,5.06
2018-12-06T01:01:27.399Z,4.84
2018-12-06T01:06:34.213Z,4.92
2018-12-06T01:11:42.881Z,4.97
2018-12-06T01:16:50.474Z,5.04
2018-12-06T01:22:02.022Z,5.13
2018-12-06T01:32:38.622Z,5.16
2018-12-06T01:37:47.810Z,5.17
2018-12-06T01:48:36.851Z,5.21
2018-12-06T01:53:52.465Z,5.07
2018-12-06T02:10:04.163Z,5.15
2018-12-06T02:20:54.209Z,5.26
2018-12-06T02:25:57.734Z,5.28
2018-12-06T02:31:07.962Z,5.19
2018-12-06T02:41:49.447Z,5.18
2018-12-06T02:47:01.604Z,5.16
2018-12-06T02:52:11.206Z,5.25
2018-12-06T03:02:50.307Z,5.23
2018-12-06T03:08:01.178Z,5.39
2018-12-06T03:13:08.693Z,5.40
2018-12-06T03:18:24.345Z,5.22
2018-12-06T03:23:34.695Z,5.31
2018-12-06T03:28:41.612Z,5.17
2018-12-06T03:33:51.576Z,5.14
2018-12-06T03:38:58.589Z,5.08
2018-12-06T03:44:06.533Z,5.27
2018-12-06T03:49:15.985Z,5.39
2018-12-06T03:54:29.039Z,5.50
2018-12-06T04:10:37.991Z,5.65
2018-12-06T04:21:13.591Z,5.42
2018-12-06T04:26:27.173Z,5.49
2018-12-06T04:31:38.076Z,5.63
2018-12-06T04:36:49.266Z,5.69
2018-12-06T04:42:00.805Z,5.78
2018-12-06T04:47:20.204Z,5.76
2018-12-06T04:52:29.158Z,5.76
2018-12-06T04:57:36.368Z,5.81
2018-12-06T05:02:45.624Z,5.80
2018-12-06T05:18:55.247Z,5.78
2018-12-06T05:24:16.515Z,5.64
2018-12-06T05:45:06.898Z,5.72
2018-12-06T05:50:16.466Z,5.81
2018-12-06T05:55:26.201Z,5.83
2018-12-06T06:00:36.682Z,5.91
2018-12-06T06:05:46.382Z,5.85
2018-12-06T06:10:59.385Z,5.83
2018-12-06T06:16:24.793Z,5.92
2018-12-06T06:27:12.815Z,5.88
2018-12-06T06:43:22.143Z,6.09
2018-12-06T06:48:32.906Z,6.14
2018-12-06T06:53:52.177Z,6.11
2018-12-06T07:10:20.441Z,6.22
2018-12-06T07:15:30.549Z,6.18
2018-12-06T07:20:43.634Z,6.18
2018-12-06T07:25:50.699Z,6.22
2018-12-06T07:30:57.295Z,6.31
2018-12-06T07:36:04.014Z,6.36
2018-12-06T07:41:19.445Z,6.10
2018-12-06T07:51:39.309Z,6.19
2018-12-06T07:56:52.697Z,6.31
2018-12-06T08:02:08.757Z,6.39
2018-12-06T08:07:24.811Z,6.42
2018-12-06T08:12:34.282Z,6.34
2018-12-06T08:17:41.252Z,6.34
2018-12-06T08:22:46.485Z,6.33
2018-12-06T08:27:59.497Z,6.33
2018-12-06T08:33:12.951Z,6.53
2018-12-06T08:44:00.078Z,6.59
2018-12-06T08:49:09.236Z,6.63
2018-12-06T08:54:16.360Z,6.66
2018-12-06T08:59:28.951Z,6.76
2018-12-06T09:04:40.455Z,6.72
2018-12-06T09:09:59.779Z,6.63
2018-12-06T09:15:15.351Z,6.62
2018-12-06T09:20:29.145Z,6.75
2018-12-06T09:25:33.989Z,6.80
2018-12-06T09:30:41.397Z,6.94
2018-12-06T09:35:50.929Z,6.96
2018-12-06T09:40:57.910Z,7.07
2018-12-06T09:46:04.563Z,7.13
2018-12-06T09:51:18.228Z,7.00
2018-12-06T09:56:25.350Z,6.97
2018-12-06T10:01:34.241Z,7.04
2018-12-06T10:06:45.596Z,7.19
2018-12-06T10:11:59.571Z,7.28
2018-12-06T10:22:38.980Z,7.47
2018-12-06T10:27:45.807Z,7.63
2018-12-06T10:33:07.121Z,7.58
2018-12-06T10:38:15.030Z,7.69
2018-12-06T10:43:26.264Z,8.15
2018-12-06T10:48:51.878Z,8.58
2018-12-06T10:53:59.569Z,8.91
2018-12-06T10:59:07.065Z,9.27
2018-12-06T11:09:53.607Z,9.47
2018-12-06T11:26:02.550Z,9.45
2018-12-06T11:31:19.497Z,9.38
2018-12-06T11:36:32.478Z,9.37
2018-12-06T11:41:43.381Z,9.43
2018-12-06T11:46:52.453Z,9.41
2018-12-06T11:52:02.021Z,9.50
2018-12-06T11:57:16.302Z,9.57
2018-12-06T12:07:28.789Z,9.59
2018-12-06T12:12:37.663Z,9.65
2018-12-06T12:17:43.272Z,9.83
2018-12-06T12:22:53.095Z,9.78
2018-12-06T12:28:00.464Z,9.79
2018-12-06T12:33:10.732Z,9.81
2018-12-06T12:38:21.794Z,9.83
2018-12-06T12:43:35.158Z,9.90
2018-12-06T12:48:42.470Z,9.80
2018-12-06T12:53:52.573Z,9.99
2018-12-06T12:59:05.890Z,9.97
2018-12-06T13:04:23.357Z,10.07
2018-12-06T13:09:36.484Z,10.15
2018-12-06T13:14:43.287Z,10.32
2018-12-06T13:19:51.028Z,10.36
2018-12-06T13:24:56.766Z,10.25
2018-12-06T13:30:10.571Z,10.22
2018-12-06T13:35:19.610Z,10.29
2018-12-06T13:40:39.311Z,10.34
2018-12-06T13:45:46.025Z,10.37
2018-12-06T13:50:57.588Z,10.37
2018-12-06T14:07:16.328Z,10.22
2018-12-06T14:12:23.477Z,10.34
2018-12-06T14:23:03.758Z,10.33
2018-12-06T14:28:18.801Z,10.24
2018-12-06T14:33:25.970Z,10.23
2018-12-06T14:38:40.042Z,10.20
2018-12-06T14:43:48.358Z,10.17
2018-12-06T14:48:55.818Z,10.20
2018-12-06T14:54:06.143Z,10.17
2018-12-06T14:59:19.912Z,10.21
2018-12-06T15:04:38.774Z,10.14
2018-12-06T15:09:42.622Z,10.17
2018-12-06T15:15:04.113Z,10.15
2018-12-06T15:25:53.737Z,10.16
2018-12-06T15:31:01.371Z,10.23
2018-12-06T15:41:43.181Z,10.15
2018-12-06T15:46:53.672Z,10.20
2018-12-06T15:52:16.633Z,10.30
2018-12-06T15:57:37.892Z,10.18
2018-12-06T16:02:47.749Z,10.13
2018-12-06T16:18:56.849Z,10.24
2018-12-06T16:24:10.082Z,10.19
2018-12-06T16:40:17.792Z,10.10
2018-12-06T16:45:24.854Z,10.13
2018-12-06T16:50:47.541Z,10.06
2018-12-06T17:01:27.229Z,10.08
2018-12-06T17:23:07.971Z,9.99
2018-12-06T17:28:15.936Z,9.99
2018-12-06T17:33:26.393Z,10.05
2018-12-06T17:38:29.897Z,10.11
2018-12-06T17:43:45.317Z,10.17
2018-12-06T17:48:59.208Z,10.10
2018-12-06T17:54:06.235Z,10.25
2018-12-06T17:59:13.395Z,10.28
2018-12-06T18:04:25.110Z,10.18
2018-12-06T18:09:31.765Z,10.13
2018-12-06T18:14:41.434Z,10.17
2018-12-06T18:25:19.928Z,10.14
2018-12-06T18:30:33.376Z,10.14
2018-12-06T18:35:40.330Z,10.16
2018-12-06T18:40:47.723Z,10.23
2018-12-06T18:45:54.745Z,10.28
2018-12-06T18:51:08.340Z,10.27
2018-12-06T18:56:20.741Z,10.27
2018-12-06T19:18:06.677Z,10.32
2018-12-06T19:23:23.614Z,10.32
2018-12-06T19:28:29.053Z,10.40
2018-12-06T19:33:44.613Z,10.55
2018-12-06T19:44:22.002Z,10.62
2018-12-06T19:55:05.118Z,10.63
2018-12-06T20:00:32.338Z,10.55
2018-12-06T20:05:41.910Z,10.57
2018-12-06T20:32:14.859Z,10.67
2018-12-06T20:37:22.965Z,10.65
2018-12-06T20:42:30.394Z,10.68
2018-12-06T20:47:37.569Z,10.69
2018-12-06T20:52:50.028Z,10.68
2018-12-06T21:08:55.529Z,10.72
2018-12-06T21:14:06.767Z,10.77
2018-12-06T21:19:13.669Z,10.80
2018-12-06T21:24:20.743Z,10.80
2018-12-06T21:34:36.365Z,10.77
2018-12-06T21:39:46.426Z,10.73
2018-12-06T21:44:53.717Z,10.80
2018-12-06T21:50:08.472Z,10.80
2018-12-06T21:55:17.918Z,10.88
2018-12-06T22:06:05.675Z,10.92
2018-12-06T22:11:12.406Z,10.87
2018-12-06T22:16:19.034Z,10.90
2018-12-06T22:21:34.634Z,10.93
2018-12-06T22:26:42.432Z,10.95
2018-12-06T22:37:28.253Z,10.97
2018-12-06T22:42:42.151Z,10.92
2018-12-06T22:47:59.955Z,10.94
2018-12-06T22:58:39.381Z,10.94
2018-12-06T23:03:44.636Z,10.96
2018-12-06T23:08:59.915Z,10.96
2018-12-06T23:14:15.397Z,11.00
2018-12-06T23:24:55.818Z,11.03
2018-12-06T23:30:19.244Z,11.00
2018-12-06T23:46:26.550Z,11.02
2018-12-06T23:51:42.555Z,11.00
